Time;durP1;ratioP1;P1;durP2;ratioP2;P2;SDS_P1;SDS_P2;PMS_P1;PMS_P2;Temp;Humidity;BMP_temperature;BMP_pressure;BME280_temperature;BME280_humidity;BME280_pressure;Samples;Min_cycle;Max_cycle;Signal;HPM_P1;HPM_P2
2023/06/22 00:02:25;;;;;;;3.70;3.40;;;23.80;99.90;;;;;;4950418;29;20234;-78
2023/06/22 00:04:52;;;;;;;4.97;4.30;;;23.70;99.90;;;;;;4936090;29;20699;-78
2023/06/22 00:07:20;;;;;;;4.40;4.00;;;23.90;99.90;;;;;;4952073;29;20643;-78
2023/06/22 00:09:47;;;;;;;5.18;3.92;;;23.90;99.90;;;;;;4936663;29;20206;-78
2023/06/22 00:12:15;;;;;;;4.68;4.18;;;23.70;99.90;;;;;;4936278;29;20218;-78
2023/06/22 00:14:42;;;;;;;5.13;4.60;;;23.90;99.90;;;;;;4951992;29;20202;-77
2023/06/22 00:17:09;;;;;;;4.90;4.25;;;23.50;99.90;;;;;;4933699;29;20694;-77
2023/06/22 00:19:40;;;;;;;5.95;5.35;;;23.60;99.90;;;;;;4936466;29;20591;-78
2023/06/22 00:22:07;;;;;;;4.90;4.50;;;23.80;99.90;;;;;;4948373;29;20226;-77
2023/06/22 00:24:35;;;;;;;5.05;4.55;;;23.80;99.90;;;;;;4949708;29;20194;-78
2023/06/22 00:27:02;;;;;;;7.75;4.90;;;23.80;99.90;;;;;;4950669;29;20198;-78
2023/06/22 00:29:30;;;;;;;5.93;4.40;;;23.70;99.90;;;;;;4929223;29;20221;-78
2023/06/22 00:31:57;;;;;;;6.20;5.43;;;23.80;99.90;;;;;;4934915;29;20252;-77
2023/06/22 00:34:25;;;;;;;6.07;5.45;;;23.70;99.90;;;;;;4927337;29;20206;-78
2023/06/22 00:36:56;;;;;;;5.90;5.15;;;23.60;99.90;;;;;;4946597;29;20198;-78
2023/06/22 00:39:24;;;;;;;5.78;4.97;;;23.70;99.90;;;;;;4952823;29;20198;-78
2023/06/22 00:41:52;;;;;;;6.07;5.50;;;23.50;99.90;;;;;;4933707;29;20217;-77
2023/06/22 00:44:19;;;;;;;7.10;6.40;;;23.30;99.90;;;;;;4945017;29;20210;-78
2023/06/22 00:46:47;;;;;;;6.32;5.72;;;23.10;99.90;;;;;;4933360;29;20205;-78
2023/06/22 00:49:14;;;;;;;6.28;5.35;;;22.90;99.90;;;;;;4948690;29;20206;-78
2023/06/22 00:51:45;;;;;;;6.57;5.78;;;23.10;99.90;;;;;;4937573;29;20225;-78
2023/06/22 00:54:14;;;;;;;6.00;5.50;;;23.40;99.90;;;;;;4949931;29;20707;-78
2023/06/22 00:56:43;;;;;;;7.50;6.35;;;23.40;99.90;;;;;;4936381;29;20197;-78
2023/06/22 00:59:12;;;;;;;6.50;5.75;;;23.10;99.90;;;;;;4956138;29;20193;-78
2023/06/22 01:01:41;;;;;;;7.03;5.65;;;23.00;99.90;;;;;;4931916;29;20218;-78
2023/06/22 01:04:08;;;;;;;5.85;5.30;;;23.00;99.90;;;;;;4952494;29;20593;-78
2023/06/22 01:06:46;;;;;;;6.10;5.50;;;23.20;99.90;;;;;;4952563;29;20203;-78
2023/06/22 01:09:18;;;;;;;6.45;5.85;;;23.50;99.90;;;;;;4935427;29;20197;-78
2023/06/22 01:11:53;;;;;;;6.25;5.65;;;23.40;99.90;;;;;;4932749;29;20221;-77
2023/06/22 01:14:24;;;;;;;6.93;5.22;;;23.30;99.90;;;;;;4931268;29;20218;-78
2023/06/22 01:16:55;;;;;;;6.72;6.13;;;23.30;99.90;;;;;;4933198;29;20209;-78
2023/06/22 01:19:36;;;;;;;7.03;6.28;;;23.30;99.90;;;;;;4936282;29;20194;-78
2023/06/22 01:22:05;;;;;;;7.38;6.60;;;23.30;99.90;;;;;;4939353;29;20237;-78
2023/06/22 01:24:46;;;;;;;6.63;5.78;;;23.20;99.90;;;;;;4933398;29;20206;-78
2023/06/22 01:27:23;;;;;;;8.80;7.88;;;23.30;99.90;;;;;;4950724;29;20206;-78
2023/06/22 01:30:00;;;;;;;8.02;7.10;;;23.00;99.90;;;;;;4937388;29;20209;-78
2023/06/22 01:32:30;;;;;;;8.13;6.95;;;22.90;99.90;;;;;;4937291;29;20230;-78
2023/06/22 01:35:00;;;;;;;8.15;7.30;;;22.90;99.90;;;;;;4940218;29;20202;-78
2023/06/22 01:37:31;;;;;;;9.50;8.57;;;22.80;99.90;;;;;;4935110;29;20201;-78
2023/06/22 01:40:19;;;;;;;10.13;7.68;;;22.70;99.90;;;;;;4938103;29;20210;-78
2023/06/22 01:42:47;;;;;;;9.05;8.15;;;22.60;99.90;;;;;;4933264;29;20218;-78
2023/06/22 01:45:16;;;;;;;8.15;7.32;;;22.60;99.90;;;;;;4934446;29;20202;-78
2023/06/22 01:47:44;;;;;;;7.97;6.65;;;22.60;99.90;;;;;;4936710;29;20198;-77
2023/06/22 01:50:12;;;;;;;7.93;7.13;;;22.70;99.90;;;;;;4948982;29;20233;-77
2023/06/22 01:52:39;;;;;;;7.05;6.45;;;22.80;99.90;;;;;;4935473;29;20221;-78
2023/06/22 01:55:07;;;;;;;7.75;6.95;;;22.90;99.90;;;;;;4929643;29;20247;-78
2023/06/22 01:57:35;;;;;;;7.20;6.57;;;22.80;99.90;;;;;;4932847;29;20202;-78
2023/06/22 02:00:05;;;;;;;8.50;7.75;;;22.80;99.90;;;;;;4936873;29;20205;-77
2023/06/22 02:02:49;;;;;;;8.38;7.57;;;22.70;99.90;;;;;;4953614;28;20563;-78
2023/06/22 02:05:19;;;;;;;9.48;8.52;;;23.00;99.90;;;;;;4930783;29;20202;-78
2023/06/22 02:08:01;;;;;;;10.13;9.13;;;22.70;99.90;;;;;;4954029;29;20208;-78
2023/06/22 02:10:33;;;;;;;10.55;9.55;;;22.80;99.90;;;;;;4931491;29;20634;-78
2023/06/22 02:13:03;;;;;;;11.77;9.80;;;22.80;99.90;;;;;;4953410;28;20214;-78
2023/06/22 02:15:31;;;;;;;12.85;11.55;;;22.60;99.90;;;;;;4938345;29;20206;-78
2023/06/22 02:18:00;;;;;;;11.75;10.65;;;22.30;99.90;;;;;;4933489;29;20208;-78
2023/06/22 02:20:28;;;;;;;11.27;10.18;;;22.40;99.90;;;;;;4938281;29;20201;-78
2023/06/22 02:22:57;;;;;;;9.93;8.93;;;22.30;99.90;;;;;;4933874;29;20233;-77
2023/06/22 02:25:25;;;;;;;8.82;8.00;;;22.40;99.90;;;;;;4931657;29;20200;-77
2023/06/22 02:27:53;;;;;;;11.25;10.15;;;22.70;99.90;;;;;;4951849;29;20217;-77
2023/06/22 02:30:20;;;;;;;10.80;9.82;;;22.80;99.90;;;;;;4939347;29;20210;-77
2023/06/22 02:32:48;;;;;;;10.90;9.90;;;22.80;99.90;;;;;;4950390;28;20221;-77
2023/06/22 02:35:25;;;;;;;11.75;10.30;;;23.00;99.90;;;;;;4938983;29;20557;-77
2023/06/22 02:37:54;;;;;;;10.73;9.68;;;22.80;99.90;;;;;;4950614;29;20201;-77
2023/06/22 02:40:21;;;;;;;13.00;11.80;;;22.60;99.90;;;;;;4924831;29;20210;-77
2023/06/22 02:42:49;;;;;;;12.45;11.25;;;22.30;99.90;;;;;;4950745;28;20624;-77
2023/06/22 02:45:17;;;;;;;11.13;10.13;;;22.10;99.90;;;;;;4930205;29;20677;-77
2023/06/22 02:47:44;;;;;;;9.77;8.77;;;22.30;99.90;;;;;;4929684;29;20210;-77
2023/06/22 02:50:12;;;;;;;8.95;7.22;;;22.80;99.90;;;;;;4925935;29;20208;-77
2023/06/22 02:52:41;;;;;;;9.00;8.10;;;23.20;99.90;;;;;;4946672;28;20232;-77
2023/06/22 02:55:09;;;;;;;10.93;9.93;;;23.40;99.90;;;;;;4931124;29;20219;-77
2023/06/22 02:57:37;;;;;;;10.30;9.27;;;23.50;99.90;;;;;;4932041;29;20194;-77
2023/06/22 03:00:16;;;;;;;10.55;9.55;;;23.50;99.90;;;;;;4930883;29;20656;-77
2023/06/22 03:02:45;;;;;;;10.30;9.30;;;23.50;99.90;;;;;;4945884;29;20221;-77
2023/06/22 03:05:13;;;;;;;11.63;10.23;;;23.50;99.90;;;;;;4932847;29;20201;-77
2023/06/22 03:07:43;;;;;;;12.70;11.45;;;23.50;99.90;;;;;;4948014;29;20228;-77
2023/06/22 03:10:12;;;;;;;11.45;10.27;;;23.40;99.90;;;;;;4931928;29;20197;-77
2023/06/22 03:12:40;;;;;;;9.55;8.65;;;23.10;99.90;;;;;;4932281;29;20217;-77
2023/06/22 03:15:09;;;;;;;10.80;9.70;;;23.20;99.90;;;;;;4934371;29;20210;-77
2023/06/22 03:17:38;;;;;;;10.43;9.50;;;23.20;99.90;;;;;;4950064;29;20194;-77
2023/06/22 03:20:09;;;;;;;11.15;10.02;;;23.30;99.90;;;;;;4931817;29;20562;-77
2023/06/22 03:22:36;;;;;;;10.55;9.45;;;23.30;99.90;;;;;;4948988;29;20233;-77
2023/06/22 03:25:10;;;;;;;12.15;10.95;;;23.30;99.90;;;;;;4934706;29;20197;-77
2023/06/22 03:27:39;;;;;;;10.88;9.73;;;23.40;99.90;;;;;;4936729;29;20663;-77
2023/06/22 03:30:10;;;;;;;10.95;9.95;;;23.40;99.90;;;;;;4933581;29;20206;-76
2023/06/22 03:32:37;;;;;;;11.60;10.40;;;23.40;99.90;;;;;;4930202;29;20229;-76
2023/06/22 03:35:07;;;;;;;15.63;14.02;;;23.20;99.90;;;;;;4925726;29;20218;-76
2023/06/22 03:37:37;;;;;;;10.68;9.75;;;23.00;99.90;;;;;;4928131;29;20218;-76
2023/06/22 03:40:07;;;;;;;11.70;10.50;;;22.90;99.90;;;;;;4949487;29;20209;-76
2023/06/22 03:42:36;;;;;;;10.48;9.57;;;23.10;99.90;;;;;;4946918;29;20217;-76
2023/06/22 03:45:05;;;;;;;11.82;10.63;;;23.20;99.90;;;;;;4945430;29;20198;-76
2023/06/22 03:47:33;;;;;;;11.45;10.35;;;23.30;99.90;;;;;;4935932;29;20201;-76
2023/06/22 03:50:04;;;;;;;11.50;10.30;;;23.30;99.90;;;;;;4935325;29;20221;-76
2023/06/22 03:52:32;;;;;;;12.48;11.13;;;23.30;99.90;;;;;;4848245;29;20252;-76
2023/06/22 03:54:59;;;;;;;10.63;9.63;;;23.20;99.90;;;;;;4936682;29;20225;-76
2023/06/22 03:57:28;;;;;;;12.23;10.95;;;23.20;99.90;;;;;;4952541;29;20201;-76
2023/06/22 03:59:58;;;;;;;12.35;10.25;;;23.20;99.90;;;;;;4928658;29;20198;-75
2023/06/22 04:02:25;;;;;;;12.02;10.82;;;23.20;99.90;;;;;;4942325;28;20222;-75
2023/06/22 04:04:53;;;;;;;14.50;10.57;;;23.20;99.90;;;;;;4948638;29;20201;-75
2023/06/22 04:07:20;;;;;;;24.80;16.00;;;23.20;99.90;;;;;;4933636;29;20202;-76
2023/06/22 04:09:47;;;;;;;21.00;13.90;;;23.20;99.90;;;;;;4930631;29;20212;-76
2023/06/22 04:12:15;;;;;;;16.08;12.93;;;23.20;99.90;;;;;;4943682;28;20252;-76
2023/06/22 04:14:44;;;;;;;12.75;11.27;;;23.30;99.90;;;;;;4928962;29;20221;-76
2023/06/22 04:17:14;;;;;;;13.00;11.60;;;23.20;99.90;;;;;;4942779;29;20202;-76
2023/06/22 04:19:42;;;;;;;19.73;13.00;;;23.20;99.90;;;;;;4947245;29;20202;-76
2023/06/22 04:22:10;;;;;;;20.08;12.25;;;23.20;99.90;;;;;;4940287;28;20237;-76
2023/06/22 04:24:37;;;;;;;15.52;12.73;;;23.00;99.90;;;;;;4948299;29;20198;-76
2023/06/22 04:27:05;;;;;;;13.20;11.88;;;23.10;99.90;;;;;;4932181;29;20217;-76
2023/06/22 04:29:33;;;;;;;13.88;12.35;;;23.00;99.90;;;;;;4924126;29;20213;-76
2023/06/22 04:32:04;;;;;;;15.23;13.43;;;23.00;99.90;;;;;;4949610;28;20821;-76
2023/06/22 04:34:42;;;;;;;14.32;12.55;;;22.90;99.90;;;;;;4954322;29;20202;-76
2023/06/22 04:37:15;;;;;;;14.00;12.65;;;23.00;99.90;;;;;;4933732;29;20198;-76
2023/06/22 04:39:45;;;;;;;14.27;12.82;;;23.00;99.90;;;;;;4933525;29;20569;-77
2023/06/22 04:42:13;;;;;;;15.00;13.50;;;22.90;99.90;;;;;;4933118;29;20524;-76
2023/06/22 04:44:46;;;;;;;15.63;14.05;;;23.00;99.90;;;;;;4934538;29;20197;-76
2023/06/22 04:47:23;;;;;;;12.57;11.18;;;22.90;99.90;;;;;;4933251;29;20206;-76
2023/06/22 04:50:10;;;;;;;12.70;11.45;;;22.80;99.90;;;;;;4952467;29;20209;-76
2023/06/22 04:52:39;;;;;;;15.48;14.05;;;22.90;99.90;;;;;;4935541;29;20232;-76
2023/06/22 04:55:08;;;;;;;13.95;12.65;;;22.40;99.90;;;;;;4934425;29;20230;-77
2023/06/22 04:57:48;;;;;;;14.35;12.88;;;22.70;99.90;;;;;;4938005;29;20217;-77
2023/06/22 05:00:17;;;;;;;14.90;13.60;;;22.90;99.90;;;;;;4951076;29;20205;-77
2023/06/22 05:02:47;;;;;;;15.35;13.90;;;22.90;99.90;;;;;;4932422;29;20217;-77
2023/06/22 05:05:14;;;;;;;14.57;13.13;;;23.00;99.90;;;;;;4946001;29;20198;-77
2023/06/22 05:07:44;;;;;;;17.10;14.77;;;23.00;99.90;;;;;;4934204;29;20198;-77
2023/06/22 05:10:12;;;;;;;17.92;15.65;;;22.90;99.90;;;;;;4932768;29;20563;-77
2023/06/22 05:12:54;;;;;;;17.92;15.25;;;22.90;99.90;;;;;;4930464;29;20221;-77
2023/06/22 05:15:26;;;;;;;16.55;15.02;;;22.60;99.90;;;;;;4934611;29;20210;-76
2023/06/22 05:17:55;;;;;;;14.93;13.52;;;22.70;99.90;;;;;;4931394;29;20205;-76
2023/06/22 05:20:22;;;;;;;13.75;12.23;;;22.60;99.90;;;;;;4928174;29;20207;-76
2023/06/22 05:22:50;;;;;;;15.40;13.90;;;22.60;99.90;;;;;;4946901;29;20750;-76
2023/06/22 05:25:17;;;;;;;16.33;14.73;;;22.70;99.90;;;;;;4952244;28;20194;-76
2023/06/22 05:27:50;;;;;;;17.40;15.70;;;22.60;99.90;;;;;;4934038;29;20210;-76
2023/06/22 05:30:18;;;;;;;17.42;15.70;;;22.40;99.90;;;;;;4950217;29;20206;-76
2023/06/22 05:32:45;;;;;;;13.60;12.23;;;22.30;99.90;;;;;;4931968;29;20898;-76
2023/06/22 05:35:14;;;;;;;18.30;16.50;;;22.50;99.90;;;;;;4928184;29;20215;-76
2023/06/22 05:37:42;;;;;;;16.98;15.27;;;22.40;99.90;;;;;;4936408;29;20194;-75
2023/06/22 05:40:11;;;;;;;13.15;11.90;;;22.30;99.90;;;;;;4948463;29;20209;-75
2023/06/22 05:42:38;;;;;;;16.45;14.85;;;22.60;99.90;;;;;;4952820;29;20221;-76
2023/06/22 05:45:07;;;;;;;16.70;14.98;;;22.60;99.90;;;;;;4934227;29;20217;-76
2023/06/22 05:47:34;;;;;;;18.85;17.02;;;22.30;99.90;;;;;;4932298;29;20209;-76
2023/06/22 05:50:06;;;;;;;17.17;14.85;;;22.20;99.90;;;;;;4949959;29;20206;-76
2023/06/22 05:52:35;;;;;;;18.80;14.90;;;22.60;99.90;;;;;;4935296;29;20236;-76
2023/06/22 05:55:03;;;;;;;15.88;13.23;;;22.80;99.90;;;;;;4950891;29;20221;-76
2023/06/22 05:57:31;;;;;;;15.73;13.70;;;22.90;99.90;;;;;;4952216;29;20204;-77
2023/06/22 05:59:58;;;;;;;17.73;15.90;;;23.10;99.90;;;;;;4953773;29;20205;-77
2023/06/22 06:02:26;;;;;;;14.27;12.75;;;23.00;99.90;;;;;;4931289;29;20233;-77
2023/06/22 06:04:54;;;;;;;18.25;15.73;;;22.70;99.90;;;;;;4947372;28;20198;-77
2023/06/22 06:07:22;;;;;;;16.73;14.48;;;22.70;99.90;;;;;;4950192;29;20201;-77
2023/06/22 06:09:50;;;;;;;15.50;13.95;;;22.50;99.90;;;;;;4934224;29;20194;-77
2023/06/22 06:12:18;;;;;;;13.45;12.13;;;22.80;99.90;;;;;;4939002;28;20241;-77
2023/06/22 06:14:47;;;;;;;17.70;15.80;;;22.60;99.90;;;;;;4952366;29;20212;-78
2023/06/22 06:17:14;;;;;;;17.00;14.65;;;22.30;99.90;;;;;;4946022;29;20209;-78
2023/06/22 06:19:53;;;;;;;13.23;11.90;;;22.30;99.90;;;;;;4935661;29;20201;-78
2023/06/22 06:22:23;;;;;;;13.35;11.95;;;22.70;99.90;;;;;;4948785;28;20221;-77
2023/06/22 06:25:37;;;;;;;13.60;12.07;;;22.90;99.90;;;;;;4932076;29;20202;-77
2023/06/22 06:28:17;;;;;;;14.10;12.55;;;23.10;99.90;;;;;;4932061;29;20682;-77
2023/06/22 06:30:57;;;;;;;18.27;14.35;;;23.20;99.90;;;;;;4934449;29;20202;-77
2023/06/22 06:33:24;;;;;;;13.77;12.38;;;23.30;99.90;;;;;;4929204;28;20711;-78
2023/06/22 06:36:02;;;;;;;13.68;12.27;;;23.30;99.90;;;;;;4946315;29;20210;-78
2023/06/22 06:38:29;;;;;;;13.75;12.40;;;23.40;99.90;;;;;;4928489;29;20206;-78
2023/06/22 06:40:57;;;;;;;15.88;14.30;;;23.40;99.90;;;;;;4932390;29;20206;-78
2023/06/22 06:43:32;;;;;;;17.25;14.98;;;23.30;99.90;;;;;;4935452;29;20233;-78
2023/06/22 06:46:06;;;;;;;14.80;13.30;;;23.20;99.90;;;;;;4929205;29;20563;-78
2023/06/22 06:48:55;;;;;;;14.25;12.88;;;23.30;99.90;;;;;;4951702;28;20202;-78
2023/06/22 06:51:23;;;;;;;13.85;12.25;;;23.40;99.90;;;;;;4946004;29;20197;-77
2023/06/22 06:54:14;;;;;;;14.13;12.63;;;23.50;99.90;;;;;;4947727;29;20204;-77
2023/06/22 06:56:47;;;;;;;12.88;11.68;;;23.50;99.90;;;;;;4945433;29;20205;-77
2023/06/22 06:59:24;;;;;;;15.38;13.88;;;23.50;99.90;;;;;;4948989;29;20199;-76
2023/06/22 07:01:52;;;;;;;13.90;12.52;;;23.50;99.90;;;;;;4931211;29;20708;-76
2023/06/22 07:04:19;;;;;;;13.35;11.98;;;23.20;99.90;;;;;;4934419;29;20197;-77
2023/06/22 07:06:47;;;;;;;12.82;11.52;;;23.30;99.90;;;;;;4952856;29;20202;-77
2023/06/22 07:09:14;;;;;;;14.40;10.93;;;23.40;99.90;;;;;;4932510;29;20214;-76
2023/06/22 07:11:41;;;;;;;12.82;11.52;;;23.50;99.90;;;;;;4945223;28;20233;-77
2023/06/22 07:14:09;;;;;;;14.25;12.55;;;23.50;99.90;;;;;;4945396;28;20213;-78
2023/06/22 07:16:38;;;;;;;13.10;11.55;;;23.60;99.90;;;;;;4922177;29;20595;-76
2023/06/22 07:23:08;;;;;;;12.15;10.95;;;23.70;99.90;;;;;;4947735;28;20212;-77
2023/06/22 07:26:17;;;;;;;13.95;12.75;;;23.70;99.90;;;;;;4949184;29;20198;-76
2023/06/22 07:28:52;;;;;;;13.15;11.80;;;23.60;99.90;;;;;;4952675;28;20204;-75
2023/06/22 07:31:19;;;;;;;18.30;13.82;;;23.30;99.90;;;;;;4930772;28;20205;-76
2023/06/22 07:33:48;;;;;;;17.25;14.32;;;23.20;99.90;;;;;;4922362;29;20213;-76
2023/06/22 07:36:15;;;;;;;15.65;13.82;;;22.90;99.90;;;;;;4934926;29;20221;-76
2023/06/22 07:38:43;;;;;;;17.08;13.15;;;22.90;99.90;;;;;;4944296;29;20198;-76
2023/06/22 07:41:10;;;;;;;13.85;12.52;;;22.90;99.90;;;;;;4942405;29;20215;-76
2023/06/22 07:43:38;;;;;;;14.32;12.90;;;22.70;99.90;;;;;;4927646;29;20206;-76
2023/06/22 07:46:05;;;;;;;16.30;14.25;;;22.90;99.90;;;;;;4935834;29;20198;-76
2023/06/22 07:48:33;;;;;;;15.55;13.80;;;23.00;99.90;;;;;;4941992;29;20213;-76
2023/06/22 07:51:01;;;;;;;15.57;14.07;;;22.90;99.90;;;;;;4944217;29;20208;-76
2023/06/22 07:53:29;;;;;;;15.43;13.75;;;22.90;99.90;;;;;;4948797;28;20252;-76
2023/06/22 07:55:56;;;;;;;15.60;14.10;;;23.00;99.90;;;;;;4930424;29;20232;-76
2023/06/22 07:58:24;;;;;;;15.82;14.18;;;23.10;99.90;;;;;;4948112;28;20210;-76
2023/06/22 08:00:51;;;;;;;16.50;14.88;;;23.30;99.90;;;;;;4929027;29;20202;-76
2023/06/22 08:03:18;;;;;;;16.25;14.65;;;23.50;99.90;;;;;;4926401;29;20217;-76
2023/06/22 08:05:46;;;;;;;16.40;14.30;;;23.50;99.90;;;;;;4948096;29;20197;-76
2023/06/22 08:08:15;;;;;;;18.05;16.15;;;23.40;99.90;;;;;;4934948;29;20206;-76
2023/06/22 08:10:42;;;;;;;17.67;15.95;;;23.50;99.90;;;;;;4920948;29;20209;-76
2023/06/22 08:13:10;;;;;;;15.50;13.90;;;23.60;99.90;;;;;;4924257;29;20225;-76
2023/06/22 08:15:38;;;;;;;15.73;14.13;;;23.70;99.90;;;;;;4954750;29;20212;-76
2023/06/22 08:18:06;;;;;;;19.65;15.40;;;23.80;99.90;;;;;;4948915;29;20565;-75
2023/06/22 08:20:33;;;;;;;18.55;16.73;;;23.80;99.90;;;;;;4947611;29;20198;-75
2023/06/22 08:23:05;;;;;;;16.73;14.98;;;23.60;99.90;;;;;;4923488;29;20225;-75
2023/06/22 08:25:34;;;;;;;17.90;16.15;;;23.60;99.90;;;;;;4948929;29;20197;-76
2023/06/22 08:28:01;;;;;;;17.42;15.32;;;23.70;99.90;;;;;;4949716;29;20201;-76
2023/06/22 08:30:29;;;;;;;18.00;15.25;;;23.80;99.90;;;;;;4934270;29;20212;-76
2023/06/22 08:32:56;;;;;;;18.63;16.73;;;23.90;99.90;;;;;;4951380;29;20229;-75
2023/06/22 08:35:26;;;;;;;20.27;18.27;;;23.90;99.90;;;;;;4945206;29;20206;-75
2023/06/22 08:37:55;;;;;;;20.05;18.02;;;23.90;99.90;;;;;;4949560;28;20233;-75
2023/06/22 08:40:22;;;;;;;20.17;18.27;;;23.90;99.90;;;;;;4937692;29;20208;-75
2023/06/22 08:42:51;;;;;;;19.75;17.75;;;23.90;99.90;;;;;;4953688;29;20221;-75
2023/06/22 08:45:18;;;;;;;22.20;19.98;;;24.00;99.90;;;;;;4939160;29;20567;-75
2023/06/22 08:47:46;;;;;;;21.25;19.23;;;23.90;99.90;;;;;;4933119;29;20210;-75
2023/06/22 08:50:13;;;;;;;22.80;20.50;;;23.90;99.90;;;;;;4937382;29;20206;-76
2023/06/22 08:52:42;;;;;;;20.95;18.17;;;23.90;99.90;;;;;;4932702;29;20606;-76
2023/06/22 08:55:10;;;;;;;19.85;18.05;;;24.10;99.90;;;;;;4929409;29;20205;-77
2023/06/22 08:57:38;;;;;;;20.40;18.50;;;24.10;99.90;;;;;;4935198;29;20685;-76
2023/06/22 09:00:17;;;;;;;22.23;19.98;;;24.10;99.90;;;;;;4932392;29;20202;-76
2023/06/22 09:02:44;;;;;;;22.95;20.55;;;24.20;99.90;;;;;;4950595;28;20233;-76
2023/06/22 09:05:12;;;;;;;18.92;16.73;;;24.10;99.90;;;;;;4952104;29;20200;-77
2023/06/22 09:07:39;;;;;;;22.30;20.00;;;24.20;99.90;;;;;;4950901;29;20190;-77
2023/06/22 09:10:08;;;;;;;20.95;18.90;;;24.10;99.90;;;;;;4951135;29;20695;-76
2023/06/22 09:12:37;;;;;;;18.25;16.50;;;24.00;99.90;;;;;;4933654;29;20237;-76
2023/06/22 09:15:07;;;;;;;18.42;16.73;;;24.10;99.90;;;;;;4943670;29;20214;-76
2023/06/22 09:17:36;;;;;;;18.50;16.77;;;24.20;99.90;;;;;;4931426;29;20222;-76
2023/06/22 09:20:05;;;;;;;21.52;19.42;;;24.20;99.90;;;;;;4934265;29;20194;-76
2023/06/22 09:22:33;;;;;;;20.00;18.15;;;24.10;99.90;;;;;;4934681;29;20229;-77
2023/06/22 09:25:00;;;;;;;18.63;16.83;;;24.10;99.90;;;;;;4933014;29;20198;-76
2023/06/22 09:27:28;;;;;;;21.00;18.85;;;24.30;99.90;;;;;;4929498;29;20677;-76
2023/06/22 09:29:58;;;;;;;22.25;20.00;;;24.40;99.90;;;;;;4949679;29;20202;-76
2023/06/22 09:32:26;;;;;;;24.27;21.80;;;24.20;99.90;;;;;;4931692;29;20227;-76
2023/06/22 09:34:54;;;;;;;22.60;20.50;;;24.20;99.90;;;;;;4927209;29;20660;-76
2023/06/22 09:37:22;;;;;;;21.73;19.52;;;24.10;99.90;;;;;;4952258;29;20221;-76
2023/06/22 09:39:49;;;;;;;23.92;21.73;;;24.30;99.90;;;;;;4953825;29;20205;-76
2023/06/22 09:42:16;;;;;;;22.30;20.10;;;24.30;99.90;;;;;;4935580;28;20233;-76
2023/06/22 09:44:44;;;;;;;22.40;20.05;;;24.40;99.90;;;;;;4952142;29;20198;-76
2023/06/22 09:47:11;;;;;;;18.98;17.13;;;24.60;99.90;;;;;;4951433;29;20707;-76
2023/06/22 09:49:39;;;;;;;22.40;20.20;;;24.80;99.90;;;;;;4951104;29;20210;-76
2023/06/22 09:52:08;;;;;;;22.95;20.65;;;25.00;99.90;;;;;;4948235;29;20236;-76
2023/06/22 09:54:35;;;;;;;21.73;19.63;;;25.10;99.90;;;;;;4946081;29;20664;-76
2023/06/22 09:57:03;;;;;;;20.63;18.70;;;25.20;99.90;;;;;;4954141;29;20237;-76
2023/06/22 09:59:30;;;;;;;19.15;17.45;;;25.10;99.90;;;;;;4933350;29;20656;-76
2023/06/22 10:01:58;;;;;;;20.60;18.70;;;25.20;99.90;;;;;;4952359;29;20716;-76
2023/06/22 10:04:25;;;;;;;20.98;19.00;;;25.30;99.90;;;;;;4948950;29;20796;-76
2023/06/22 10:06:53;;;;;;;20.58;18.75;;;25.20;99.90;;;;;;4951811;29;20193;-76
2023/06/22 10:09:22;;;;;;;20.17;18.17;;;25.40;99.90;;;;;;4949874;29;20198;-76
2023/06/22 10:11:49;;;;;;;18.83;16.92;;;25.50;99.90;;;;;;4930664;29;20236;-76
2023/06/22 10:14:16;;;;;;;18.30;16.48;;;25.60;99.90;;;;;;4945209;28;20202;-76
2023/06/22 10:16:44;;;;;;;18.08;16.38;;;25.70;99.90;;;;;;4929576;29;20203;-76
2023/06/22 10:19:11;;;;;;;16.88;15.30;;;25.70;99.90;;;;;;4941654;29;20207;-76
2023/06/22 10:21:39;;;;;;;17.25;15.65;;;25.70;99.90;;;;;;4950366;29;20225;-76
2023/06/22 10:24:06;;;;;;;17.05;15.45;;;25.80;99.90;;;;;;4952683;28;20221;-76
2023/06/22 10:26:36;;;;;;;16.42;14.93;;;25.70;99.90;;;;;;4952086;29;20550;-76
2023/06/22 10:29:04;;;;;;;16.08;14.68;;;25.80;99.90;;;;;;4939704;29;20201;-76
2023/06/22 10:31:31;;;;;;;16.13;14.52;;;25.80;99.90;;;;;;4953249;29;20213;-76
2023/06/22 10:34:28;;;;;;;15.95;14.35;;;26.00;99.90;;;;;;4928024;29;20209;-75
2023/06/22 10:36:55;;;;;;;14.82;12.95;;;26.00;99.90;;;;;;4948793;29;20198;-76
2023/06/22 10:39:22;;;;;;;15.57;14.18;;;26.00;99.90;;;;;;4924796;29;20209;-76
2023/06/22 10:41:51;;;;;;;14.00;12.70;;;25.90;99.90;;;;;;4929924;29;20224;-76
2023/06/22 10:44:20;;;;;;;13.85;12.45;;;26.10;99.90;;;;;;4950441;29;20206;-76
2023/06/22 10:46:47;;;;;;;15.65;14.07;;;26.30;99.90;;;;;;4936452;29;20224;-76
2023/06/22 10:49:15;;;;;;;14.57;13.18;;;26.30;99.90;;;;;;4947680;29;20209;-76
2023/06/22 10:51:42;;;;;;;14.23;12.82;;;26.40;99.90;;;;;;4938657;28;20221;-76
2023/06/22 10:54:10;;;;;;;15.40;13.15;;;26.40;99.90;;;;;;4935486;29;20209;-76
2023/06/22 10:56:37;;;;;;;14.32;12.95;;;26.30;99.90;;;;;;4947570;29;20202;-76
2023/06/22 10:59:06;;;;;;;14.05;12.45;;;26.30;99.90;;;;;;4951277;29;20213;-76
2023/06/22 11:01:33;;;;;;;14.45;13.07;;;26.30;99.90;;;;;;4938853;28;20235;-76
2023/06/22 11:04:01;;;;;;;14.80;13.30;;;26.30;99.90;;;;;;4949546;28;20213;-76
2023/06/22 11:06:28;;;;;;;15.07;13.70;;;26.30;99.90;;;;;;4941820;29;20710;-76
2023/06/22 11:08:56;;;;;;;15.43;14.02;;;26.10;99.90;;;;;;4949886;29;20532;-76
2023/06/22 11:11:23;;;;;;;16.42;14.93;;;26.00;99.90;;;;;;4931999;28;20676;-76
2023/06/22 11:13:50;;;;;;;14.85;13.55;;;26.00;99.90;;;;;;4940505;29;20194;-77
2023/06/22 11:16:19;;;;;;;14.50;13.10;;;26.00;99.90;;;;;;4947308;29;20198;-77
2023/06/22 11:19:00;;;;;;;15.55;14.07;;;25.90;99.90;;;;;;4937820;29;20216;-77
2023/06/22 11:21:28;;;;;;;15.40;13.80;;;25.80;99.90;;;;;;4930783;28;20205;-77
2023/06/22 11:24:11;;;;;;;14.77;13.48;;;25.80;99.90;;;;;;4929673;29;20214;-77
2023/06/22 11:27:17;;;;;;;16.40;14.75;;;25.80;99.90;;;;;;4950709;28;20202;-76
2023/06/22 11:29:44;;;;;;;15.68;14.27;;;25.70;99.90;;;;;;4948134;29;20197;-77
2023/06/22 11:32:14;;;;;;;19.33;17.08;;;25.70;99.90;;;;;;4926558;29;20234;-77
2023/06/22 11:34:41;;;;;;;19.77;17.88;;;25.60;99.90;;;;;;4923776;29;20208;-77
2023/06/22 11:37:08;;;;;;;21.45;19.45;;;25.50;99.90;;;;;;4931385;29;20543;-77
2023/06/22 11:39:36;;;;;;;19.15;17.40;;;25.40;99.90;;;;;;4945155;29;20205;-77
2023/06/22 11:42:03;;;;;;;19.70;17.70;;;25.30;99.90;;;;;;4931580;29;20225;-77
2023/06/22 11:44:31;;;;;;;21.13;18.92;;;25.30;99.90;;;;;;4950293;29;20201;-77
2023/06/22 11:47:00;;;;;;;23.00;20.83;;;25.20;99.90;;;;;;4934918;29;20201;-77
2023/06/22 11:49:29;;;;;;;22.73;20.33;;;25.10;99.90;;;;;;4947640;29;20201;-77
2023/06/22 11:51:56;;;;;;;20.85;18.80;;;24.90;99.90;;;;;;4945270;29;20714;-77
2023/06/22 11:54:24;;;;;;;20.48;18.42;;;24.90;99.90;;;;;;4942916;29;20209;-78
2023/06/22 11:56:51;;;;;;;24.13;21.63;;;24.90;99.90;;;;;;4946850;29;20687;-77
2023/06/22 11:59:19;;;;;;;27.25;24.50;;;24.90;99.90;;;;;;4948236;29;20695;-77
2023/06/22 12:01:46;;;;;;;27.15;24.33;;;24.60;99.90;;;;;;4950931;28;20220;-76
2023/06/22 12:04:15;;;;;;;24.38;21.75;;;24.60;99.90;;;;;;4934574;29;20675;-76
2023/06/22 12:06:43;;;;;;;26.35;23.85;;;24.40;99.90;;;;;;4931058;29;20217;-76
2023/06/22 12:09:13;;;;;;;26.63;24.02;;;24.50;99.90;;;;;;4933596;29;20205;-78
2023/06/22 12:11:40;;;;;;;27.85;25.05;;;24.30;99.90;;;;;;4930730;29;20225;-77
2023/06/22 12:14:08;;;;;;;26.98;24.33;;;24.20;99.90;;;;;;4931478;29;20204;-77
2023/06/22 12:16:35;;;;;;;23.23;20.83;;;24.20;99.90;;;;;;4929605;29;20210;-77
2023/06/22 12:19:03;;;;;;;24.38;21.98;;;24.30;99.90;;;;;;4932029;29;20233;-77
2023/06/22 12:21:30;;;;;;;25.20;22.52;;;24.40;99.90;;;;;;4945787;28;20205;-76
2023/06/22 12:23:59;;;;;;;26.17;23.65;;;24.30;99.90;;;;;;4932582;29;20209;-76
2023/06/22 12:26:26;;;;;;;26.52;23.88;;;24.30;99.90;;;;;;4930137;29;20569;-76
2023/06/22 12:28:53;;;;;;;28.17;25.48;;;24.00;99.90;;;;;;4929425;29;20198;-77
2023/06/22 12:31:21;;;;;;;27.20;24.42;;;24.00;99.90;;;;;;4946216;29;20206;-77
2023/06/22 12:33:48;;;;;;;30.98;28.05;;;24.10;99.90;;;;;;4947556;29;20213;-77
2023/06/22 12:36:16;;;;;;;30.30;27.23;;;24.10;99.90;;;;;;4944354;29;20206;-77
2023/06/22 12:38:44;;;;;;;30.83;27.65;;;23.90;99.90;;;;;;4944575;28;20221;-77
2023/06/22 12:41:13;;;;;;;26.08;23.58;;;23.90;99.90;;;;;;4931803;29;20206;-77
2023/06/22 12:43:41;;;;;;;29.55;26.67;;;23.90;99.90;;;;;;4930992;29;20205;-77
2023/06/22 12:46:08;;;;;;;33.42;30.23;;;24.00;99.90;;;;;;4946108;28;20211;-77
2023/06/22 12:48:41;;;;;;;30.17;27.20;;;23.80;99.90;;;;;;4933039;29;20204;-77